Historyczne dane pomiarowe

Dodano dane terminowe – wersja testowa.

Dane z okresu 1951-2019

Wersja bazy: 1.34 [2019-03-16, lista zmian], aktualizacja planowana na 2019-04-15

Dane meteo z obszaru Polski uzyskane na podstawie danych udostępnionych przez Instytut Meteorologii i Gospodarki Wodnej – Państwowy Instytut Badawczy.

 

Wybierz Datę:    

       

TemperaturaWilgotnośćZachmurzenieWiatrCiśnienieWidzialnośćZjawiska
 Data    tng td wb rh cc ccl cl cm ch dir g1 g2 mslp ppp      
1994-06-20 00:00:00 11.4--- 9.9 10.691wxwx0wx--1013.1 972.2 0.0---wx
1994-06-20 01:00:00 14.4--- 10.7 12.378wxwx1wx--1013.0 972.5----wx
1994-06-20 02:00:00 14.8--- 10.6 12.476wxwxwx1wx--1012.9 972.5----wx
1994-06-20 03:00:00 15.3--- 11.3 13.077wxwxwx2wx--1012.7 972.4----wx
1994-06-20 04:00:00 15.1--- 10.9 12.776wxwxwx2wx--1013.0 972.6----wx
1994-06-20 05:00:00 14.7--- 11.4 12.881wxwxwx4wx--1013.4 973.0----wx
1994-06-20 06:00:00 14.8--- 10.9 12.678wxwxwx4wx--1013.9 973.5 0.0---wx
1994-06-20 07:00:00 14.8--- 10.6 12.476wxwxwx5wx--1014.6 974.1----wx
1994-06-20 08:00:00 15.4--- 10.8 12.874wxwxwx3wx--1014.8 974.4----wx
1994-06-20 09:00:00 15.0--- 10.4 12.474wxwxwx2wx--1015.4 974.9----wx
1994-06-20 10:00:00 16.8--- 10.7 13.367wxwxwx2wx--1015.0 974.8----wx
1994-06-20 11:00:00 16.2--- 10.4 12.968wxwxwx4wx--1015.2 974.9----wx
1994-06-20 12:00:00 16.9--- 11.2 13.669wxwxwx3wx--1015.1 974.9 0.0---wx
1994-06-20 13:00:00 16.1--- 10.5 12.969wxwxwx3wx--1015.5 975.2----wx
1994-06-20 14:00:00 17.3--- 10.9 13.666wxwxwx3wx--1015.4 975.2----wx
1994-06-20 15:00:00 18.0--- 10.3 13.661wxwxwxwx3wx--1014.6 974.6----wx
1994-06-20 16:00:00 19.1--- 10.2 14.056wxwxwxwx3wx--1014.6 974.7----wx
1994-06-20 17:00:00 18.4--- 10.0 13.658wxwxwxwx3wx--1014.8 974.8----wx
1994-06-20 18:00:00 18.1--- 10.2 13.660wxwxwxwxwx2wx--1015.1 975.1 0.0---wx
1994-06-20 19:00:00 16.1--- 11.1 13.272wxwxwxwxwx0wx--1015.9 975.6----wx
1994-06-20 20:00:00 13.4--- 10.7 11.984wxwxwxwx0wx--1017.0 976.2----wx
1994-06-20 21:00:00 11.8--- 10.4 11.091wxwxwxwx0wx--1017.7 976.7----wx
1994-06-20 22:00:00 10.4--- 9.1 9.792wxwxwxwx0wx--1018.3 977.1----wx
1994-06-20 23:00:00 9.4--- 8.3 8.893wxwxwx0wx--1018.7 977.3----wx

 

Źródłem pochodzenia danych jest Instytut Meteorologii i Gospodarki Wodnej – Państwowy Instytut Badawczy. Dane Instytutu Meteorologii i Gospodarki Wodnej – Państwowego Instytutu Badawczego zostały przetworzone.

Dane źródłowe można odnaleźć na stronie https://dane.imgw.pl